sensor_id;sensor_type;location;lat;lon;timestamp;P1;P2;P0
54869;PMS5003;40756;-37.950;145.008;2022-07-01T00:00:07;30;29;
54869;PMS5003;40756;-37.950;145.008;2022-07-01T00:02:37;30;30;
54869;PMS5003;40756;-37.950;145.008;2022-07-01T00:05:07;30;29;
54869;PMS5003;40756;-37.950;145.008;2022-07-01T00:07:37;26;25;
54869;PMS5003;40756;-37.950;145.008;2022-07-01T00:10:07;31;29;
54869;PMS5003;40756;-37.950;145.008;2022-07-01T00:12:37;25;24;
54869;PMS5003;40756;-37.950;145.008;2022-07-01T00:15:07;34;32;
54869;PMS5003;40756;-37.950;145.008;2022-07-01T00:17:37;30;29;
54869;PMS5003;40756;-37.950;145.008;2022-07-01T00:20:06;24;24;
54869;PMS5003;40756;-37.950;145.008;2022-07-01T00:22:36;21;21;
54869;PMS5003;40756;-37.950;145.008;2022-07-01T00:25:07;21;20;
54869;PMS5003;40756;-37.950;145.008;2022-07-01T00:27:37;24;21;
54869;PMS5003;40756;-37.950;145.008;2022-07-01T00:30:08;24;22;
54869;PMS5003;40756;-37.950;145.008;2022-07-01T00:32:38;18;18;
54869;PMS5003;40756;-37.950;145.008;2022-07-01T00:35:08;28;27;
54869;PMS5003;40756;-37.950;145.008;2022-07-01T00:37:39;31;31;
54869;PMS5003;40756;-37.950;145.008;2022-07-01T00:40:08;30;28;
54869;PMS5003;40756;-37.950;145.008;2022-07-01T00:42:39;30;29;
54869;PMS5003;40756;-37.950;145.008;2022-07-01T00:45:09;37;35;
54869;PMS5003;40756;-37.950;145.008;2022-07-01T00:47:40;33;31;
54869;PMS5003;40756;-37.950;145.008;2022-07-01T00:50:11;31;30;
54869;PMS5003;40756;-37.950;145.008;2022-07-01T00:52:42;34;33;
54869;PMS5003;40756;-37.950;145.008;2022-07-01T00:55:12;30;30;
54869;PMS5003;40756;-37.950;145.008;2022-07-01T00:57:43;31;30;
54869;PMS5003;40756;-37.950;145.008;2022-07-01T01:00:14;32;31;
54869;PMS5003;40756;-37.950;145.008;2022-07-01T01:02:46;27;27;
54869;PMS5003;40756;-37.950;145.008;2022-07-01T01:05:15;31;31;
54869;PMS5003;40756;-37.950;145.008;2022-07-01T01:07:44;27;26;
54869;PMS5003;40756;-37.950;145.008;2022-07-01T01:10:15;30;30;
54869;PMS5003;40756;-37.950;145.008;2022-07-01T01:12:46;36;33;
54869;PMS5003;40756;-37.950;145.008;2022-07-01T01:15:18;24;23;
54869;PMS5003;40756;-37.950;145.008;2022-07-01T01:17:47;29;29;
54869;PMS5003;40756;-37.950;145.008;2022-07-01T01:20:17;24;24;
54869;PMS5003;40756;-37.950;145.008;2022-07-01T01:22:46;30;28;
54869;PMS5003;40756;-37.950;145.008;2022-07-01T01:25:17;27;26;
54869;PMS5003;40756;-37.950;145.008;2022-07-01T01:27:47;29;27;
54869;PMS5003;40756;-37.950;145.008;2022-07-01T01:30:17;34;28;
54869;PMS5003;40756;-37.950;145.008;2022-07-01T01:32:47;30;27;
54869;PMS5003;40756;-37.950;145.008;2022-07-01T01:35:16;24;23;
54869;PMS5003;40756;-37.950;145.008;2022-07-01T01:37:46;23;22;
54869;PMS5003;40756;-37.950;145.008;2022-07-01T01:40:16;24;23;
54869;PMS5003;40756;-37.950;145.008;2022-07-01T01:42:46;27;25;
54869;PMS5003;40756;-37.950;145.008;2022-07-01T01:45:15;21;20;
54869;PMS5003;40756;-37.950;145.008;2022-07-01T01:47:45;20;20;
54869;PMS5003;40756;-37.950;145.008;2022-07-01T01:50:15;24;24;
54869;PMS5003;40756;-37.950;145.008;2022-07-01T01:52:44;21;20;
54869;PMS5003;40756;-37.950;145.008;2022-07-01T01:55:15;24;22;
54869;PMS5003;40756;-37.950;145.008;2022-07-01T01:57:45;22;21;
54869;PMS5003;40756;-37.950;145.008;2022-07-01T02:00:14;28;27;
54869;PMS5003;40756;-37.950;145.008;2022-07-01T02:02:44;28;27;
54869;PMS5003;40756;-37.950;145.008;2022-07-01T02:05:22;29;29;
54869;PMS5003;40756;-37.950;145.008;2022-07-01T02:07:51;28;27;
54869;PMS5003;40756;-37.950;145.008;2022-07-01T02:10:21;32;30;
54869;PMS5003;40756;-37.950;145.008;2022-07-01T02:12:50;32;31;
54869;PMS5003;40756;-37.950;145.008;2022-07-01T02:15:20;35;32;
54869;PMS5003;40756;-37.950;145.008;2022-07-01T02:17:50;23;23;
54869;PMS5003;40756;-37.950;145.008;2022-07-01T02:20:19;25;24;
54869;PMS5003;40756;-37.950;145.008;2022-07-01T02:22:48;23;22;
54869;PMS5003;40756;-37.950;145.008;2022-07-01T02:25:20;18;18;
54869;PMS5003;40756;-37.950;145.008;2022-07-01T02:27:50;21;18;
54869;PMS5003;40756;-37.950;145.008;2022-07-01T02:30:20;23;21;
54869;PMS5003;40756;-37.950;145.008;2022-07-01T02:32:50;20;19;
54869;PMS5003;40756;-37.950;145.008;2022-07-01T02:35:20;18;18;
54869;PMS5003;40756;-37.950;145.008;2022-07-01T02:37:50;15;15;
54869;PMS5003;40756;-37.950;145.008;2022-07-01T02:40:20;16;12;
54869;PMS5003;40756;-37.950;145.008;2022-07-01T02:42:50;17;15;
54869;PMS5003;40756;-37.950;145.008;2022-07-01T02:45:19;16;15;
54869;PMS5003;40756;-37.950;145.008;2022-07-01T02:47:49;21;17;
54869;PMS5003;40756;-37.950;145.008;2022-07-01T02:50:19;14;14;
54869;PMS5003;40756;-37.950;145.008;2022-07-01T02:52:49;18;17;
54869;PMS5003;40756;-37.950;145.008;2022-07-01T02:55:18;18;16;
54869;PMS5003;40756;-37.950;145.008;2022-07-01T02:57:48;13;13;
54869;PMS5003;40756;-37.950;145.008;2022-07-01T03:00:19;11;11;
54869;PMS5003;40756;-37.950;145.008;2022-07-01T03:02:49;15;14;
54869;PMS5003;40756;-37.950;145.008;2022-07-01T03:05:18;15;15;
54869;PMS5003;40756;-37.950;145.008;2022-07-01T03:07:48;13;13;
54869;PMS5003;40756;-37.950;145.008;2022-07-01T03:10:17;15;14;
54869;PMS5003;40756;-37.950;145.008;2022-07-01T03:12:47;15;13;
54869;PMS5003;40756;-37.950;145.008;2022-07-01T03:15:17;18;14;
54869;PMS5003;40756;-37.950;145.008;2022-07-01T03:17:47;15;13;
54869;PMS5003;40756;-37.950;145.008;2022-07-01T03:20:17;13;13;
54869;PMS5003;40756;-37.950;145.008;2022-07-01T03:22:46;18;17;
54869;PMS5003;40756;-37.950;145.008;2022-07-01T03:25:16;17;17;
54869;PMS5003;40756;-37.950;145.008;2022-07-01T03:27:47;17;15;
54869;PMS5003;40756;-37.950;145.008;2022-07-01T03:30:17;17;15;
54869;PMS5003;40756;-37.950;145.008;2022-07-01T03:32:47;17;17;
54869;PMS5003;40756;-37.950;145.008;2022-07-01T03:35:17;17;15;
54869;PMS5003;40756;-37.950;145.008;2022-07-01T03:37:47;15;13;
54869;PMS5003;40756;-37.950;145.008;2022-07-01T03:40:16;17;17;
54869;PMS5003;40756;-37.950;145.008;2022-07-01T03:42:46;18;17;
54869;PMS5003;40756;-37.950;145.008;2022-07-01T03:45:15;18;17;
54869;PMS5003;40756;-37.950;145.008;2022-07-01T03:47:46;20;18;
54869;PMS5003;40756;-37.950;145.008;2022-07-01T03:50:17;19;18;
54869;PMS5003;40756;-37.950;145.008;2022-07-01T03:52:48;19;17;
54869;PMS5003;40756;-37.950;145.008;2022-07-01T03:55:18;19;19;
54869;PMS5003;40756;-37.950;145.008;2022-07-01T03:57:48;13;12;
54869;PMS5003;40756;-37.950;145.008;2022-07-01T04:00:17;14;13;
54869;PMS5003;40756;-37.950;145.008;2022-07-01T04:02:47;14;13;
54869;PMS5003;40756;-37.950;145.008;2022-07-01T04:05:22;13;13;
54869;PMS5003;40756;-37.950;145.008;2022-07-01T04:07:52;14;13;
54869;PMS5003;40756;-37.950;145.008;2022-07-01T04:10:22;18;16;
54869;PMS5003;40756;-37.950;145.008;2022-07-01T04:12:51;13;13;
54869;PMS5003;40756;-37.950;145.008;2022-07-01T04:15:21;15;14;
54869;PMS5003;40756;-37.950;145.008;2022-07-01T04:17:51;11;10;
54869;PMS5003;40756;-37.950;145.008;2022-07-01T04:20:20;16;16;
54869;PMS5003;40756;-37.950;145.008;2022-07-01T04:22:49;16;15;
54869;PMS5003;40756;-37.950;145.008;2022-07-01T04:25:19;18;18;
54869;PMS5003;40756;-37.950;145.008;2022-07-01T04:27:49;22;18;
54869;PMS5003;40756;-37.950;145.008;2022-07-01T04:30:19;16;16;
54869;PMS5003;40756;-37.950;145.008;2022-07-01T04:32:49;20;19;
54869;PMS5003;40756;-37.950;145.008;2022-07-01T04:35:18;22;21;
54869;PMS5003;40756;-37.950;145.008;2022-07-01T04:37:48;19;17;
54869;PMS5003;40756;-37.950;145.008;2022-07-01T04:40:17;22;20;
54869;PMS5003;40756;-37.950;145.008;2022-07-01T04:42:47;23;21;
54869;PMS5003;40756;-37.950;145.008;2022-07-01T04:45:17;20;19;
54869;PMS5003;40756;-37.950;145.008;2022-07-01T04:47:47;23;21;
54869;PMS5003;40756;-37.950;145.008;2022-07-01T04:50:16;27;25;
54869;PMS5003;40756;-37.950;145.008;2022-07-01T04:52:46;25;24;
54869;PMS5003;40756;-37.950;145.008;2022-07-01T04:55:15;23;23;
54869;PMS5003;40756;-37.950;145.008;2022-07-01T04:57:46;20;19;
54869;PMS5003;40756;-37.950;145.008;2022-07-01T05:00:16;19;19;
54869;PMS5003;40756;-37.950;145.008;2022-07-01T05:02:45;18;16;
54869;PMS5003;40756;-37.950;145.008;2022-07-01T05:05:15;15;14;
54869;PMS5003;40756;-37.950;145.008;2022-07-01T05:07:44;16;16;
54869;PMS5003;40756;-37.950;145.008;2022-07-01T05:10:14;14;14;
54869;PMS5003;40756;-37.950;145.008;2022-07-01T05:12:44;10;10;
54869;PMS5003;40756;-37.950;145.008;2022-07-01T05:15:13;12;12;
54869;PMS5003;40756;-37.950;145.008;2022-07-01T05:17:43;11;10;
54869;PMS5003;40756;-37.950;145.008;2022-07-01T05:20:13;11;11;
54869;PMS5003;40756;-37.950;145.008;2022-07-01T05:22:53;6;5;
54869;PMS5003;40756;-37.950;145.008;2022-07-01T05:25:23;4;4;
54869;PMS5003;40756;-37.950;145.008;2022-07-01T05:27:53;9;7;
54869;PMS5003;40756;-37.950;145.008;2022-07-01T05:30:23;10;9;
54869;PMS5003;40756;-37.950;145.008;2022-07-01T05:32:53;9;8;
54869;PMS5003;40756;-37.950;145.008;2022-07-01T05:35:23;5;5;
54869;PMS5003;40756;-37.950;145.008;2022-07-01T05:37:53;6;6;
54869;PMS5003;40756;-37.950;145.008;2022-07-01T05:40:23;4;4;
54869;PMS5003;40756;-37.950;145.008;2022-07-01T05:42:52;6;5;
54869;PMS5003;40756;-37.950;145.008;2022-07-01T05:45:22;5;5;
54869;PMS5003;40756;-37.950;145.008;2022-07-01T05:47:52;4;4;
54869;PMS5003;40756;-37.950;145.008;2022-07-01T05:50:22;4;4;
54869;PMS5003;40756;-37.950;145.008;2022-07-01T05:52:51;6;5;
54869;PMS5003;40756;-37.950;145.008;2022-07-01T05:55:21;6;6;
54869;PMS5003;40756;-37.950;145.008;2022-07-01T05:57:51;4;3;
54869;PMS5003;40756;-37.950;145.008;2022-07-01T06:00:20;3;3;
54869;PMS5003;40756;-37.950;145.008;2022-07-01T06:02:50;4;4;
54869;PMS5003;40756;-37.950;145.008;2022-07-01T06:05:20;4;3;
54869;PMS5003;40756;-37.950;145.008;2022-07-01T06:07:50;4;4;
54869;PMS5003;40756;-37.950;145.008;2022-07-01T06:10:19;7;6;
54869;PMS5003;40756;-37.950;145.008;2022-07-01T06:12:49;7;6;
54869;PMS5003;40756;-37.950;145.008;2022-07-01T06:15:19;8;7;
54869;PMS5003;40756;-37.950;145.008;2022-07-01T06:17:48;11;9;
54869;PMS5003;40756;-37.950;145.008;2022-07-01T06:20:18;14;13;
54869;PMS5003;40756;-37.950;145.008;2022-07-01T06:22:48;13;12;
54869;PMS5003;40756;-37.950;145.008;2022-07-01T06:25:18;13;12;
54869;PMS5003;40756;-37.950;145.008;2022-07-01T06:27:49;15;12;
54869;PMS5003;40756;-37.950;145.008;2022-07-01T06:30:19;7;6;
54869;PMS5003;40756;-37.950;145.008;2022-07-01T06:32:49;7;7;
54869;PMS5003;40756;-37.950;145.008;2022-07-01T06:35:20;8;6;
54869;PMS5003;40756;-37.950;145.008;2022-07-01T06:37:50;9;9;
54869;PMS5003;40756;-37.950;145.008;2022-07-01T06:40:19;9;9;
54869;PMS5003;40756;-37.950;145.008;2022-07-01T06:42:49;11;10;
54869;PMS5003;40756;-37.950;145.008;2022-07-01T06:45:19;15;14;
54869;PMS5003;40756;-37.950;145.008;2022-07-01T06:47:48;8;7;
54869;PMS5003;40756;-37.950;145.008;2022-07-01T06:50:18;6;5;
54869;PMS5003;40756;-37.950;145.008;2022-07-01T06:52:48;6;5;
54869;PMS5003;40756;-37.950;145.008;2022-07-01T06:55:18;3;3;
54869;PMS5003;40756;-37.950;145.008;2022-07-01T06:58:00;5;4;
54869;PMS5003;40756;-37.950;145.008;2022-07-01T07:00:31;7;7;
54869;PMS5003;40756;-37.950;145.008;2022-07-01T07:03:00;6;5;
54869;PMS5003;40756;-37.950;145.008;2022-07-01T07:05:30;9;7;
54869;PMS5003;40756;-37.950;145.008;2022-07-01T07:08:00;4;4;
54869;PMS5003;40756;-37.950;145.008;2022-07-01T07:10:29;7;6;
54869;PMS5003;40756;-37.950;145.008;2022-07-01T07:12:59;3;3;
54869;PMS5003;40756;-37.950;145.008;2022-07-01T07:15:29;3;2;
54869;PMS5003;40756;-37.950;145.008;2022-07-01T07:17:59;3;3;
54869;PMS5003;40756;-37.950;145.008;2022-07-01T07:20:29;4;4;
54869;PMS5003;40756;-37.950;145.008;2022-07-01T07:22:58;5;4;
54869;PMS5003;40756;-37.950;145.008;2022-07-01T07:25:28;3;2;
54869;PMS5003;40756;-37.950;145.008;2022-07-01T07:27:58;4;4;
54869;PMS5003;40756;-37.950;145.008;2022-07-01T07:30:29;2;2;
54869;PMS5003;40756;-37.950;145.008;2022-07-01T07:32:59;2;2;
54869;PMS5003;40756;-37.950;145.008;2022-07-01T07:35:29;2;2;
54869;PMS5003;40756;-37.950;145.008;2022-07-01T07:37:59;2;2;
54869;PMS5003;40756;-37.950;145.008;2022-07-01T07:40:29;4;3;
54869;PMS5003;40756;-37.950;145.008;2022-07-01T07:42:59;4;3;
54869;PMS5003;40756;-37.950;145.008;2022-07-01T07:45:28;5;4;
54869;PMS5003;40756;-37.950;145.008;2022-07-01T07:47:58;3;3;
54869;PMS5003;40756;-37.950;145.008;2022-07-01T07:50:28;6;5;
54869;PMS5003;40756;-37.950;145.008;2022-07-01T07:52:58;3;2;
54869;PMS5003;40756;-37.950;145.008;2022-07-01T07:55:27;4;2;
54869;PMS5003;40756;-37.950;145.008;2022-07-01T07:57:57;4;4;
54869;PMS5003;40756;-37.950;145.008;2022-07-01T08:00:27;4;4;
54869;PMS5003;40756;-37.950;145.008;2022-07-01T08:03:02;5;4;
54869;PMS5003;40756;-37.950;145.008;2022-07-01T08:05:32;5;5;
54869;PMS5003;40756;-37.950;145.008;2022-07-01T08:08:02;5;4;
54869;PMS5003;40756;-37.950;145.008;2022-07-01T08:10:31;5;5;
54869;PMS5003;40756;-37.950;145.008;2022-07-01T08:13:00;3;3;
54869;PMS5003;40756;-37.950;145.008;2022-07-01T08:15:30;4;4;
54869;PMS5003;40756;-37.950;145.008;2022-07-01T08:18:00;7;6;
54869;PMS5003;40756;-37.950;145.008;2022-07-01T08:20:29;5;5;
54869;PMS5003;40756;-37.950;145.008;2022-07-01T08:22:59;7;7;
54869;PMS5003;40756;-37.950;145.008;2022-07-01T08:25:29;9;6;
54869;PMS5003;40756;-37.950;145.008;2022-07-01T08:27:58;5;5;
54869;PMS5003;40756;-37.950;145.008;2022-07-01T08:30:28;8;7;
54869;PMS5003;40756;-37.950;145.008;2022-07-01T08:32:59;6;5;
54869;PMS5003;40756;-37.950;145.008;2022-07-01T08:35:29;4;4;
54869;PMS5003;40756;-37.950;145.008;2022-07-01T08:37:59;7;6;
54869;PMS5003;40756;-37.950;145.008;2022-07-01T08:40:30;6;5;
54869;PMS5003;40756;-37.950;145.008;2022-07-01T08:43:00;6;5;
54869;PMS5003;40756;-37.950;145.008;2022-07-01T08:45:31;6;6;
54869;PMS5003;40756;-37.950;145.008;2022-07-01T08:48:03;7;7;
54869;PMS5003;40756;-37.950;145.008;2022-07-01T08:50:34;8;8;
54869;PMS5003;40756;-37.950;145.008;2022-07-01T08:53:05;7;6;
54869;PMS5003;40756;-37.950;145.008;2022-07-01T08:55:36;6;6;
54869;PMS5003;40756;-37.950;145.008;2022-07-01T08:58:06;9;9;
54869;PMS5003;40756;-37.950;145.008;2022-07-01T09:00:36;6;5;
54869;PMS5003;40756;-37.950;145.008;2022-07-01T09:03:06;5;4;
54869;PMS5003;40756;-37.950;145.008;2022-07-01T09:05:36;3;3;
54869;PMS5003;40756;-37.950;145.008;2022-07-01T09:08:06;5;4;
54869;PMS5003;40756;-37.950;145.008;2022-07-01T09:10:35;6;5;
54869;PMS5003;40756;-37.950;145.008;2022-07-01T09:13:05;7;6;
54869;PMS5003;40756;-37.950;145.008;2022-07-01T09:15:41;6;5;
54869;PMS5003;40756;-37.950;145.008;2022-07-01T09:18:11;6;5;
54869;PMS5003;40756;-37.950;145.008;2022-07-01T09:20:44;6;6;
54869;PMS5003;40756;-37.950;145.008;2022-07-01T09:23:15;6;6;
54869;PMS5003;40756;-37.950;145.008;2022-07-01T09:25:47;7;6;
54869;PMS5003;40756;-37.950;145.008;2022-07-01T09:28:19;8;7;
54869;PMS5003;40756;-37.950;145.008;2022-07-01T09:30:51;7;6;
54869;PMS5003;40756;-37.950;145.008;2022-07-01T09:33:23;8;7;
54869;PMS5003;40756;-37.950;145.008;2022-07-01T09:35:55;6;6;
54869;PMS5003;40756;-37.950;145.008;2022-07-01T09:38:25;11;10;
54869;PMS5003;40756;-37.950;145.008;2022-07-01T09:40:56;7;7;
54869;PMS5003;40756;-37.950;145.008;2022-07-01T09:43:27;10;8;
54869;PMS5003;40756;-37.950;145.008;2022-07-01T09:45:58;8;8;
54869;PMS5003;40756;-37.950;145.008;2022-07-01T09:48:42;7;7;
54869;PMS5003;40756;-37.950;145.008;2022-07-01T09:51:14;8;7;
54869;PMS5003;40756;-37.950;145.008;2022-07-01T09:53:44;8;8;
54869;PMS5003;40756;-37.950;145.008;2022-07-01T09:56:14;9;7;
54869;PMS5003;40756;-37.950;145.008;2022-07-01T09:58:44;9;9;
54869;PMS5003;40756;-37.950;145.008;2022-07-01T10:01:14;12;12;
54869;PMS5003;40756;-37.950;145.008;2022-07-01T10:03:44;10;9;
54869;PMS5003;40756;-37.950;145.008;2022-07-01T10:06:28;6;6;
54869;PMS5003;40756;-37.950;145.008;2022-07-01T10:09:13;6;6;
54869;PMS5003;40756;-37.950;145.008;2022-07-01T10:12:07;7;6;
54869;PMS5003;40756;-37.950;145.008;2022-07-01T10:14:56;7;7;
54869;PMS5003;40756;-37.950;145.008;2022-07-01T10:17:27;7;6;
54869;PMS5003;40756;-37.950;145.008;2022-07-01T10:20:06;6;5;
54869;PMS5003;40756;-37.950;145.008;2022-07-01T10:22:37;6;5;
54869;PMS5003;40756;-37.950;145.008;2022-07-01T10:25:41;8;8;
54869;PMS5003;40756;-37.950;145.008;2022-07-01T10:28:13;9;9;
54869;PMS5003;40756;-37.950;145.008;2022-07-01T10:31:00;8;8;
54869;PMS5003;40756;-37.950;145.008;2022-07-01T10:33:33;7;7;
54869;PMS5003;40756;-37.950;145.008;2022-07-01T10:36:08;6;5;
54869;PMS5003;40756;-37.950;145.008;2022-07-01T10:39:17;8;8;
54869;PMS5003;40756;-37.950;145.008;2022-07-01T10:42:02;8;8;
54869;PMS5003;40756;-37.950;145.008;2022-07-01T10:44:32;7;7;
54869;PMS5003;40756;-37.950;145.008;2022-07-01T10:47:02;9;9;
54869;PMS5003;40756;-37.950;145.008;2022-07-01T10:50:08;8;8;
54869;PMS5003;40756;-37.950;145.008;2022-07-01T10:52:38;8;8;
54869;PMS5003;40756;-37.950;145.008;2022-07-01T10:55:36;8;8;
54869;PMS5003;40756;-37.950;145.008;2022-07-01T10:58:06;9;9;
54869;PMS5003;40756;-37.950;145.008;2022-07-01T11:00:36;9;9;
54869;PMS5003;40756;-37.950;145.008;2022-07-01T11:03:10;14;13;
54869;PMS5003;40756;-37.950;145.008;2022-07-01T11:05:42;17;15;
54869;PMS5003;40756;-37.950;145.008;2022-07-01T11:08:13;17;17;
54869;PMS5003;40756;-37.950;145.008;2022-07-01T11:10:43;20;18;
54869;PMS5003;40756;-37.950;145.008;2022-07-01T11:13:16;20;18;
54869;PMS5003;40756;-37.950;145.008;2022-07-01T11:15:46;19;19;
54869;PMS5003;40756;-37.950;145.008;2022-07-01T11:18:16;16;16;
54869;PMS5003;40756;-37.950;145.008;2022-07-01T11:20:46;11;11;
54869;PMS5003;40756;-37.950;145.008;2022-07-01T11:23:16;10;10;
54869;PMS5003;40756;-37.950;145.008;2022-07-01T11:25:48;12;12;
54869;PMS5003;40756;-37.950;145.008;2022-07-01T11:28:18;10;10;
54869;PMS5003;40756;-37.950;145.008;2022-07-01T11:30:48;14;13;
54869;PMS5003;40756;-37.950;145.008;2022-07-01T11:33:27;10;9;
54869;PMS5003;40756;-37.950;145.008;2022-07-01T11:35:57;12;12;
54869;PMS5003;40756;-37.950;145.008;2022-07-01T11:38:28;14;13;
54869;PMS5003;40756;-37.950;145.008;2022-07-01T11:40:58;14;14;
54869;PMS5003;40756;-37.950;145.008;2022-07-01T11:43:30;13;12;
54869;PMS5003;40756;-37.950;145.008;2022-07-01T11:46:02;18;17;
54869;PMS5003;40756;-37.950;145.008;2022-07-01T11:48:35;21;19;
54869;PMS5003;40756;-37.950;145.008;2022-07-01T11:51:09;17;17;
54869;PMS5003;40756;-37.950;145.008;2022-07-01T11:53:41;20;20;
54869;PMS5003;40756;-37.950;145.008;2022-07-01T11:56:12;18;18;
54869;PMS5003;40756;-37.950;145.008;2022-07-01T11:58:44;13;13;
54869;PMS5003;40756;-37.950;145.008;2022-07-01T12:01:21;14;14;
54869;PMS5003;40756;-37.950;145.008;2022-07-01T12:03:53;12;12;
54869;PMS5003;40756;-37.950;145.008;2022-07-01T12:06:24;12;11;
54869;PMS5003;40756;-37.950;145.008;2022-07-01T12:08:56;11;11;
54869;PMS5003;40756;-37.950;145.008;2022-07-01T12:11:26;12;11;
54869;PMS5003;40756;-37.950;145.008;2022-07-01T12:13:57;11;11;
54869;PMS5003;40756;-37.950;145.008;2022-07-01T12:16:26;10;8;
54869;PMS5003;40756;-37.950;145.008;2022-07-01T12:19:05;6;6;
54869;PMS5003;40756;-37.950;145.008;2022-07-01T12:21:47;8;8;
54869;PMS5003;40756;-37.950;145.008;2022-07-01T12:24:19;10;9;
54869;PMS5003;40756;-37.950;145.008;2022-07-01T12:26:51;7;7;
54869;PMS5003;40756;-37.950;145.008;2022-07-01T12:29:29;10;9;
54869;PMS5003;40756;-37.950;145.008;2022-07-01T12:32:15;6;6;
54869;PMS5003;40756;-37.950;145.008;2022-07-01T12:34:48;8;6;
54869;PMS5003;40756;-37.950;145.008;2022-07-01T12:37:19;7;7;
54869;PMS5003;40756;-37.950;145.008;2022-07-01T12:39:56;6;6;
54869;PMS5003;40756;-37.950;145.008;2022-07-01T12:42:30;9;7;
54869;PMS5003;40756;-37.950;145.008;2022-07-01T12:45:01;7;7;
54869;PMS5003;40756;-37.950;145.008;2022-07-01T12:47:33;10;8;
54869;PMS5003;40756;-37.950;145.008;2022-07-01T12:50:12;8;8;
54869;PMS5003;40756;-37.950;145.008;2022-07-01T12:52:44;8;8;
54869;PMS5003;40756;-37.950;145.008;2022-07-01T12:55:26;9;8;
54869;PMS5003;40756;-37.950;145.008;2022-07-01T12:57:58;8;7;
54869;PMS5003;40756;-37.950;145.008;2022-07-01T13:00:29;6;6;
54869;PMS5003;40756;-37.950;145.008;2022-07-01T13:03:00;13;11;
54869;PMS5003;40756;-37.950;145.008;2022-07-01T13:05:31;12;12;
54869;PMS5003;40756;-37.950;145.008;2022-07-01T13:08:03;12;12;
54869;PMS5003;40756;-37.950;145.008;2022-07-01T13:10:33;14;13;
54869;PMS5003;40756;-37.950;145.008;2022-07-01T13:13:03;17;14;
54869;PMS5003;40756;-37.950;145.008;2022-07-01T13:15:33;13;12;
54869;PMS5003;40756;-37.950;145.008;2022-07-01T13:18:03;11;11;
54869;PMS5003;40756;-37.950;145.008;2022-07-01T13:20:33;12;11;
54869;PMS5003;40756;-37.950;145.008;2022-07-01T13:23:03;12;12;
54869;PMS5003;40756;-37.950;145.008;2022-07-01T13:25:32;10;10;
54869;PMS5003;40756;-37.950;145.008;2022-07-01T13:28:03;11;10;
54869;PMS5003;40756;-37.950;145.008;2022-07-01T13:30:33;11;11;
54869;PMS5003;40756;-37.950;145.008;2022-07-01T13:33:03;9;9;
54869;PMS5003;40756;-37.950;145.008;2022-07-01T13:35:33;10;10;
54869;PMS5003;40756;-37.950;145.008;2022-07-01T13:38:03;9;9;
54869;PMS5003;40756;-37.950;145.008;2022-07-01T13:40:33;10;10;
54869;PMS5003;40756;-37.950;145.008;2022-07-01T13:43:02;10;9;
54869;PMS5003;40756;-37.950;145.008;2022-07-01T13:45:32;10;9;
54869;PMS5003;40756;-37.950;145.008;2022-07-01T13:48:02;7;7;
54869;PMS5003;40756;-37.950;145.008;2022-07-01T13:50:32;11;10;
54869;PMS5003;40756;-37.950;145.008;2022-07-01T13:53:01;18;15;
54869;PMS5003;40756;-37.950;145.008;2022-07-01T13:55:31;15;15;
54869;PMS5003;40756;-37.950;145.008;2022-07-01T13:58:00;12;11;
54869;PMS5003;40756;-37.950;145.008;2022-07-01T14:00:30;12;11;
54869;PMS5003;40756;-37.950;145.008;2022-07-01T14:03:00;9;9;
54869;PMS5003;40756;-37.950;145.008;2022-07-01T14:06:03;12;11;
54869;PMS5003;40756;-37.950;145.008;2022-07-01T14:08:32;10;10;
54869;PMS5003;40756;-37.950;145.008;2022-07-01T14:11:03;9;9;
54869;PMS5003;40756;-37.950;145.008;2022-07-01T14:13:32;9;8;
54869;PMS5003;40756;-37.950;145.008;2022-07-01T14:16:02;8;8;
54869;PMS5003;40756;-37.950;145.008;2022-07-01T14:18:32;7;7;
54869;PMS5003;40756;-37.950;145.008;2022-07-01T14:21:02;7;6;
54869;PMS5003;40756;-37.950;145.008;2022-07-01T14:23:32;6;6;
54869;PMS5003;40756;-37.950;145.008;2022-07-01T14:26:02;8;7;
54869;PMS5003;40756;-37.950;145.008;2022-07-01T14:28:31;9;7;
54869;PMS5003;40756;-37.950;145.008;2022-07-01T14:31:01;6;6;
54869;PMS5003;40756;-37.950;145.008;2022-07-01T14:33:31;11;10;
54869;PMS5003;40756;-37.950;145.008;2022-07-01T14:36:01;8;7;
54869;PMS5003;40756;-37.950;145.008;2022-07-01T14:38:31;11;11;
54869;PMS5003;40756;-37.950;145.008;2022-07-01T14:41:00;13;13;
54869;PMS5003;40756;-37.950;145.008;2022-07-01T14:43:30;12;12;
54869;PMS5003;40756;-37.950;145.008;2022-07-01T14:46:00;13;11;
54869;PMS5003;40756;-37.950;145.008;2022-07-01T14:48:30;11;11;
54869;PMS5003;40756;-37.950;145.008;2022-07-01T14:50:59;11;11;
54869;PMS5003;40756;-37.950;145.008;2022-07-01T14:53:29;9;9;
54869;PMS5003;40756;-37.950;145.008;2022-07-01T14:55:59;10;10;
54869;PMS5003;40756;-37.950;145.008;2022-07-01T14:58:29;9;9;
54869;PMS5003;40756;-37.950;145.008;2022-07-01T15:00:59;9;9;
54869;PMS5003;40756;-37.950;145.008;2022-07-01T15:03:28;7;6;
54869;PMS5003;40756;-37.950;145.008;2022-07-01T15:05:58;8;7;
54869;PMS5003;40756;-37.950;145.008;2022-07-01T15:08:29;9;8;
54869;PMS5003;40756;-37.950;145.008;2022-07-01T15:10:59;5;5;
54869;PMS5003;40756;-37.950;145.008;2022-07-01T15:13:28;6;6;
54869;PMS5003;40756;-37.950;145.008;2022-07-01T15:15:58;7;7;
54869;PMS5003;40756;-37.950;145.008;2022-07-01T15:18:29;6;6;
54869;PMS5003;40756;-37.950;145.008;2022-07-01T15:20:59;7;7;
54869;PMS5003;40756;-37.950;145.008;2022-07-01T15:23:28;6;6;
54869;PMS5003;40756;-37.950;145.008;2022-07-01T15:25:58;7;5;
54869;PMS5003;40756;-37.950;145.008;2022-07-01T15:28:28;6;6;
54869;PMS5003;40756;-37.950;145.008;2022-07-01T15:30:57;5;5;
54869;PMS5003;40756;-37.950;145.008;2022-07-01T15:33:27;7;7;
54869;PMS5003;40756;-37.950;145.008;2022-07-01T15:35:57;6;6;
54869;PMS5003;40756;-37.950;145.008;2022-07-01T15:38:27;6;5;
54869;PMS5003;40756;-37.950;145.008;2022-07-01T15:40:57;6;5;
54869;PMS5003;40756;-37.950;145.008;2022-07-01T15:43:27;5;5;
54869;PMS5003;40756;-37.950;145.008;2022-07-01T15:45:57;6;6;
54869;PMS5003;40756;-37.950;145.008;2022-07-01T15:48:27;7;6;
54869;PMS5003;40756;-37.950;145.008;2022-07-01T15:50:57;6;5;
54869;PMS5003;40756;-37.950;145.008;2022-07-01T15:53:26;4;4;
54869;PMS5003;40756;-37.950;145.008;2022-07-01T15:55:56;4;4;
54869;PMS5003;40756;-37.950;145.008;2022-07-01T15:58:26;5;4;
54869;PMS5003;40756;-37.950;145.008;2022-07-01T16:00:56;6;5;
54869;PMS5003;40756;-37.950;145.008;2022-07-01T16:03:26;6;5;
54869;PMS5003;40756;-37.950;145.008;2022-07-01T16:05:57;5;5;
54869;PMS5003;40756;-37.950;145.008;2022-07-01T16:08:32;7;6;